Time;durP1;ratioP1;P1;durP2;ratioP2;P2;SDS_P1;SDS_P2;PMS_P1;PMS_P2;Temp;Humidity;BMP_temperature;BMP_pressure;BME280_temperature;BME280_humidity;BME280_pressure;Samples;Min_cycle;Max_cycle;Signal;HPM_P1;HPM_P2
2021/03/26 00:01:34;;;;;;;;;;;;;;;20.25;42.18;101245.53;3095647;28;113804;-61
2021/03/26 00:03:07;;;;;;;;;;;;;;;20.26;42.25;101244.41;3090420;28;114769;-61
2021/03/26 00:04:39;;;;;;;;;;;;;;;20.27;42.01;101241.28;3096644;28;115337;-60
2021/03/26 00:06:13;;;;;;;;;;;;;;;20.26;42.08;101239.59;3087199;28;115167;-61
2021/03/26 00:07:44;;;;;;;;;;;;;;;20.27;42.36;101241.28;3099918;28;114730;-59
2021/03/26 00:09:17;;;;;;;;;;;;;;;20.27;42.32;101246.88;3111495;28;115405;-59
2021/03/26 00:10:48;;;;;;;;;;;;;;;20.26;42.39;101236.78;3102459;27;114340;-60
2021/03/26 00:12:20;;;;;;;;;;;;;;;20.26;42.08;101239.59;3111225;27;115697;-60
2021/03/26 00:13:51;;;;;;;;;;;;;;;20.28;42.72;101236.50;3095100;28;115568;-61
2021/03/26 00:15:23;;;;;;;;;;;;;;;20.27;42.71;101229.22;3116092;27;115122;-59
2021/03/26 00:16:54;;;;;;;;;;;;;;;20.28;42.84;101240.16;3084410;28;115248;-59
2021/03/26 00:18:26;;;;;;;;;;;;;;;20.27;42.71;101232.00;3100312;28;113806;-60
2021/03/26 00:19:59;;;;;;;;;;;;;;;20.29;42.87;101232.56;3100362;28;114112;-60
2021/03/26 00:21:31;;;;;;;;;;;;;;;20.27;42.65;101234.81;3086666;28;117224;-59
2021/03/26 00:23:03;;;;;;;;;;;;;;;20.28;42.90;101226.13;3082729;28;115197;-59
2021/03/26 00:24:34;;;;;;;;;;;;;;;20.27;42.49;101229.22;3082560;28;115540;-60
2021/03/26 00:26:06;;;;;;;;;;;;;;;20.27;42.56;101223.59;3085023;28;115719;-60
2021/03/26 00:27:37;;;;;;;;;;;;;;;20.28;42.78;101225.28;3087529;28;115899;-60
2021/03/26 00:29:11;;;;;;;;;;;;;;;20.27;42.69;101216.00;3092546;28;115764;-59
2021/03/26 00:30:42;;;;;;;;;;;;;;;20.27;42.74;101216.00;3090924;28;115735;-60
2021/03/26 00:32:14;;;;;;;;;;;;;;;20.26;42.86;101214.34;3088346;28;117566;-58
2021/03/26 00:33:45;;;;;;;;;;;;;;;20.27;42.76;101212.38;3083177;28;115838;-60
2021/03/26 00:35:19;;;;;;;;;;;;;;;20.25;42.74;101209.03;3095725;28;114582;-60
2021/03/26 00:36:50;;;;;;;;;;;;;;;20.26;42.83;101208.72;3093998;28;115771;-59
2021/03/26 00:38:22;;;;;;;;;;;;;;;20.26;42.80;101207.91;3087311;28;115807;-60
2021/03/26 00:39:54;;;;;;;;;;;;;;;20.26;42.93;101205.13;3108463;27;114995;-59
2021/03/26 00:41:25;;;;;;;;;;;;;;;20.24;42.83;101208.22;3095401;27;115766;-59
2021/03/26 00:42:56;;;;;;;;;;;;;;;20.24;42.73;101202.59;3087186;28;115479;-59
2021/03/26 00:44:27;;;;;;;;;;;;;;;20.24;42.81;101199.78;3090253;28;115762;-60
2021/03/26 00:45:59;;;;;;;;;;;;;;;20.23;42.88;101206.53;3093295;28;116111;-59
2021/03/26 00:47:30;;;;;;;;;;;;;;;20.23;42.69;101205.69;3113306;27;114028;-60
2021/03/26 00:49:02;;;;;;;;;;;;;;;20.22;42.73;101207.66;3092193;28;114676;-59
2021/03/26 00:50:36;;;;;;;;;;;;;;;20.22;42.57;101209.63;3110894;28;113894;-58
2021/03/26 00:52:07;;;;;;;;;;;;;;;20.22;42.61;101209.63;3093626;28;113959;-58
2021/03/26 00:53:39;;;;;;;;;;;;;;;20.21;42.76;101202.38;3086643;28;113845;-61
2021/03/26 00:55:10;;;;;;;;;;;;;;;20.19;43.11;101194.25;3088287;28;113953;-60
2021/03/26 00:56:41;;;;;;;;;;;;;;;20.20;42.82;101201.53;3090501;28;113802;-60
2021/03/26 00:58:14;;;;;;;;;;;;;;;20.19;42.88;101187.78;3090914;28;113875;-59
2021/03/26 00:59:47;;;;;;;;;;;;;;;20.19;42.75;101199.84;3109677;27;113991;-60
2021/03/26 01:01:19;;;;;;;;;;;;;;;20.17;42.84;101190.88;3102610;28;113818;-59
2021/03/26 01:02:50;;;;;;;;;;;;;;;20.17;42.95;101182.47;3090554;28;113863;-60
2021/03/26 01:04:22;;;;;;;;;;;;;;;20.17;42.85;101181.66;3120057;27;113684;-59
2021/03/26 01:05:56;;;;;;;;;;;;;;;20.17;42.77;101174.06;3087586;28;113779;-60
2021/03/26 01:07:27;;;;;;;;;;;;;;;20.16;43.08;101174.38;3101876;28;114095;-61
2021/03/26 01:08:58;;;;;;;;;;;;;;;20.14;42.87;101171.88;3095678;28;114093;-60
2021/03/26 01:10:33;;;;;;;;;;;;;;;20.15;42.85;101164.28;3084519;28;115627;-60
2021/03/26 01:12:04;;;;;;;;;;;;;;;20.13;42.74;101156.16;3094437;28;115108;-60
2021/03/26 01:13:36;;;;;;;;;;;;;;;20.12;43.19;101153.69;3085226;28;115215;-59
2021/03/26 01:15:09;;;;;;;;;;;;;;;20.13;43.31;101158.13;3086557;28;115676;-61
2021/03/26 01:16:41;;;;;;;;;;;;;;;20.14;43.62;101163.44;3090236;28;114487;-61
2021/03/26 01:18:18;;;;;;;;;;;;;;;20.14;43.50;101157.84;3090951;28;115287;-61
2021/03/26 01:19:50;;;;;;;;;;;;;;;20.12;43.36;101164.91;3083487;28;115781;-61
2021/03/26 01:21:24;;;;;;;;;;;;;;;20.11;43.34;101155.66;3079618;28;115146;-59
2021/03/26 01:22:56;;;;;;;;;;;;;;;20.13;43.37;101161.78;3077720;28;115276;-60
2021/03/26 01:24:27;;;;;;;;;;;;;;;20.11;43.26;101163.22;3073972;28;116597;-61
2021/03/26 01:25:59;;;;;;;;;;;;;;;20.08;43.30;101153.41;3082562;28;115184;-61
2021/03/26 01:27:30;;;;;;;;;;;;;;;20.10;43.94;101164.34;3090333;28;115969;-61
2021/03/26 01:29:06;;;;;;;;;;;;;;;20.10;43.78;101158.75;3090517;28;115107;-60
2021/03/26 01:30:37;;;;;;;;;;;;;;;20.10;43.87;101156.78;3086282;28;115958;-59
2021/03/26 01:32:10;;;;;;;;;;;;;;;20.09;43.68;101157.06;3087525;28;115689;-61
2021/03/26 01:33:41;;;;;;;;;;;;;;;20.10;43.83;101155.94;3098742;28;115672;-59
2021/03/26 01:35:14;;;;;;;;;;;;;;;20.08;43.75;101152.59;3084469;28;117602;-61
2021/03/26 01:36:45;;;;;;;;;;;;;;;20.06;43.84;101144.47;3101658;27;115654;-61
2021/03/26 01:38:18;;;;;;;;;;;;;;;20.07;43.72;101142.53;3101672;27;116339;-59
2021/03/26 01:39:49;;;;;;;;;;;;;;;20.06;44.04;101136.06;3083567;28;117136;-60
2021/03/26 01:41:21;;;;;;;;;;;;;;;20.05;44.07;101142.81;3086919;28;115743;-61
2021/03/26 01:42:52;;;;;;;;;;;;;;;20.06;43.82;101138.03;3086781;28;115833;-61
2021/03/26 01:44:25;;;;;;;;;;;;;;;20.05;43.98;101127.94;3110743;27;116392;-61
2021/03/26 01:45:57;;;;;;;;;;;;;;;20.03;43.97;101128.28;3094128;28;116424;-59
2021/03/26 01:47:28;;;;;;;;;;;;;;;20.02;44.29;101129.41;3097652;28;114688;-59
2021/03/26 01:49:01;;;;;;;;;;;;;;;20.02;43.84;101122.94;3090127;28;115748;-58
2021/03/26 01:50:32;;;;;;;;;;;;;;;20.01;43.87;101124.91;3110396;27;114894;-61
2021/03/26 01:52:03;;;;;;;;;;;;;;;20.00;43.95;101114.81;3097599;28;115404;-60
2021/03/26 01:53:35;;;;;;;;;;;;;;;20.02;44.17;101120.16;3109484;27;114396;-59
2021/03/26 01:55:07;;;;;;;;;;;;;;;20.00;43.85;101120.44;3096349;28;114013;-61
2021/03/26 01:56:39;;;;;;;;;;;;;;;20.01;44.18;101115.66;3104970;27;114210;-60
2021/03/26 01:58:13;;;;;;;;;;;;;;;20.03;44.02;101110.59;3094068;28;113753;-58
2021/03/26 01:59:44;;;;;;;;;;;;;;;20.01;44.21;101112.84;3097009;28;113921;-59
2021/03/26 02:01:18;;;;;;;;;;;;;;;20.01;44.46;101110.06;3089652;28;113814;-59
2021/03/26 02:02:50;;;;;;;;;;;;;;;19.99;44.19;101099.13;3086817;28;114045;-60
2021/03/26 02:04:27;;;;;;;;;;;;;;;19.98;44.44;101098.31;3119084;27;114082;-61
2021/03/26 02:05:59;;;;;;;;;;;;;;;19.96;44.85;101097.78;3086312;28;114368;-59
2021/03/26 02:07:30;;;;;;;;;;;;;;;19.97;44.71;101098.59;3094826;28;114220;-60
2021/03/26 02:09:05;;;;;;;;;;;;;;;19.95;44.89;101095.25;3087219;28;113798;-59
2021/03/26 02:10:36;;;;;;;;;;;;;;;19.98;44.53;101097.47;3085966;28;113808;-58
2021/03/26 02:12:08;;;;;;;;;;;;;;;19.96;44.66;101092.16;3085957;28;113649;-60
2021/03/26 02:13:41;;;;;;;;;;;;;;;19.94;44.64;101083.19;3089559;28;114267;-58
2021/03/26 02:15:22;;;;;;;;;;;;;;;19.93;44.59;101087.16;3083066;28;115097;-60
2021/03/26 02:16:53;;;;;;;;;;;;;;;19.92;44.89;101091.09;3083432;28;115085;-60
2021/03/26 02:18:27;;;;;;;;;;;;;;;19.92;44.52;101091.09;3086578;28;114991;-58
2021/03/26 02:20:08;;;;;;;;;;;;;;;19.92;44.63;101082.69;3085791;28;114940;-59
2021/03/26 02:21:40;;;;;;;;;;;;;;;19.91;44.76;101091.38;3085878;28;114234;-60
2021/03/26 02:23:14;;;;;;;;;;;;;;;19.90;44.52;101090.56;3110900;28;115211;-58
2021/03/26 02:24:49;;;;;;;;;;;;;;;19.90;44.30;101075.69;3073658;28;115132;-60
2021/03/26 02:26:24;;;;;;;;;;;;;;;19.90;44.54;101084.09;3106263;28;115546;-59
2021/03/26 02:27:55;;;;;;;;;;;;;;;19.90;44.49;101081.31;3091847;27;115245;-60
2021/03/26 02:29:28;;;;;;;;;;;;;;;19.88;44.50;101072.38;3086542;28;115184;-61
2021/03/26 02:31:00;;;;;;;;;;;;;;;19.86;44.50;101064.25;3085640;28;115215;-60
2021/03/26 02:32:33;;;;;;;;;;;;;;;19.84;44.40;101072.16;3111667;27;115183;-59
2021/03/26 02:34:11;;;;;;;;;;;;;;;19.84;44.92;101066.53;3086006;28;115362;-60
2021/03/26 02:35:44;;;;;;;;;;;;;;;19.87;44.43;101071.53;3082445;28;115353;-61
2021/03/26 02:37:15;;;;;;;;;;;;;;;19.85;44.57;101064.56;3107600;27;114418;-60
2021/03/26 02:38:48;;;;;;;;;;;;;;;19.84;44.34;101060.09;3088704;28;116076;-59
2021/03/26 02:40:24;;;;;;;;;;;;;;;19.84;44.49;101062.91;3105699;27;116044;-59
2021/03/26 02:41:57;;;;;;;;;;;;;;;19.84;44.28;101068.50;3091998;28;116675;-59
2021/03/26 02:43:36;;;;;;;;;;;;;;;19.82;44.56;101054.78;3083965;28;115774;-60
2021/03/26 02:45:14;;;;;;;;;;;;;;;19.80;44.45;101054.25;3085674;28;115793;-60
2021/03/26 02:46:49;;;;;;;;;;;;;;;19.80;44.51;101061.84;3084932;28;115704;-61
2021/03/26 02:48:24;;;;;;;;;;;;;;;19.79;44.55;101052.59;3086321;28;115313;-59
2021/03/26 02:50:05;;;;;;;;;;;;;;;19.79;44.52;101054.56;3097378;28;115906;-60
2021/03/26 02:51:38;;;;;;;;;;;;;;;19.77;44.18;101048.41;3088744;28;116139;-61
2021/03/26 02:53:18;;;;;;;;;;;;;;;19.78;44.66;101036.91;3088615;28;115867;-59
2021/03/26 02:54:56;;;;;;;;;;;;;;;19.80;44.29;101051.47;3103398;28;116077;-61
2021/03/26 02:56:37;;;;;;;;;;;;;;;19.79;44.44;101040.53;3099535;27;114624;-60
2021/03/26 02:58:14;;;;;;;;;;;;;;;19.77;44.50;101042.78;3105318;27;116128;-59
2021/03/26 02:59:48;;;;;;;;;;;;;;;19.78;44.41;101045.31;3118255;27;114001;-60
2021/03/26 03:01:24;;;;;;;;;;;;;;;19.78;44.29;101041.66;3102838;27;113861;-61
2021/03/26 03:02:57;;;;;;;;;;;;;;;19.78;44.31;101038.84;3109986;28;113829;-59
2021/03/26 03:04:31;;;;;;;;;;;;;;;19.77;44.33;101034.38;3099289;28;113737;-59
2021/03/26 03:06:10;;;;;;;;;;;;;;;19.77;44.47;101037.19;3092189;28;113801;-60
2021/03/26 03:07:45;;;;;;;;;;;;;;;19.75;44.62;101031.06;3090655;28;113858;-61
2021/03/26 03:09:16;;;;;;;;;;;;;;;19.76;44.49;101024.31;3107792;27;114319;-59
2021/03/26 03:10:53;;;;;;;;;;;;;;;19.75;44.43;101023.50;3094114;27;113923;-61
2021/03/26 03:12:29;;;;;;;;;;;;;;;19.75;44.62;101025.44;3085979;28;113644;-61
2021/03/26 03:14:00;;;;;;;;;;;;;;;19.73;44.60;101016.50;3102675;27;113894;-61
2021/03/26 03:15:32;;;;;;;;;;;;;;;19.75;44.53;101022.66;3093698;28;113738;-61
2021/03/26 03:17:09;;;;;;;;;;;;;;;19.73;44.48;101028.56;3086593;28;114189;-60
2021/03/26 03:18:46;;;;;;;;;;;;;;;19.73;44.62;101027.72;3083488;28;113920;-60
2021/03/26 03:20:27;;;;;;;;;;;;;;;19.73;44.35;101025.75;3109542;27;113958;-60
2021/03/26 03:22:01;;;;;;;;;;;;;;;19.73;44.42;101027.72;3099093;27;113919;-59
2021/03/26 03:23:39;;;;;;;;;;;;;;;19.73;44.79;101020.13;3091151;28;115161;-61
2021/03/26 03:25:11;;;;;;;;;;;;;;;19.71;44.34;101011.22;3087383;28;115231;-61
2021/03/26 03:26:48;;;;;;;;;;;;;;;19.72;44.58;101012.03;3087064;28;115254;-61
2021/03/26 03:28:21;;;;;;;;;;;;;;;19.70;44.51;101011.50;3083241;28;115302;-59
2021/03/26 03:30:00;;;;;;;;;;;;;;;19.70;44.44;101015.16;3088362;28;115504;-61
2021/03/26 03:31:35;;;;;;;;;;;;;;;19.71;44.38;101010.38;3092355;28;115135;-59
2021/03/26 03:33:12;;;;;;;;;;;;;;;19.71;44.53;101005.59;3113767;27;115232;-61
2021/03/26 03:34:50;;;;;;;;;;;;;;;19.69;44.58;101010.66;3091300;28;114876;-59
2021/03/26 03:36:24;;;;;;;;;;;;;;;19.67;44.79;101010.13;3090846;28;115294;-59
2021/03/26 03:38:15;;;;;;;;;;;;;;;19.69;44.77;101005.06;3088708;28;115154;-60
2021/03/26 03:39:57;;;;;;;;;;;;;;;19.67;44.61;100998.09;3107200;27;115230;-59
2021/03/26 03:41:28;;;;;;;;;;;;;;;19.67;44.59;100998.91;3088897;28;114250;-59
2021/03/26 03:43:00;;;;;;;;;;;;;;;19.66;44.39;101002.88;3109181;27;115067;-60
2021/03/26 03:44:41;;;;;;;;;;;;;;;19.65;44.61;100995.59;3106933;28;114200;-61
2021/03/26 03:46:18;;;;;;;;;;;;;;;19.66;44.57;101000.06;3091985;28;115901;-60
2021/03/26 03:47:55;;;;;;;;;;;;;;;19.61;44.45;100988.91;3110922;27;116238;-59
2021/03/26 03:49:29;;;;;;;;;;;;;;;19.64;44.60;100999.53;3095128;27;116409;-59
2021/03/26 03:51:02;;;;;;;;;;;;;;;19.61;44.67;100991.72;3099060;28;115776;-59
2021/03/26 03:52:37;;;;;;;;;;;;;;;19.62;44.51;100999.00;3083567;28;115703;-59
2021/03/26 03:54:18;;;;;;;;;;;;;;;19.59;44.52;100996.78;3107963;27;116117;-59
2021/03/26 03:55:53;;;;;;;;;;;;;;;19.58;44.67;101006.31;3107549;27;115922;-59
2021/03/26 03:57:28;;;;;;;;;;;;;;;19.55;44.60;100978.91;3096325;28;115846;-60
2021/03/26 03:59:02;;;;;;;;;;;;;;;19.58;44.38;100986.69;3092002;28;116157;-59
2021/03/26 04:00:37;;;;;;;;;;;;;;;19.57;44.40;100984.22;3096997;28;115823;-60
2021/03/26 04:02:11;;;;;;;;;;;;;;;19.54;44.76;100980.88;3088105;28;115803;-59
2021/03/26 04:03:46;;;;;;;;;;;;;;;19.55;44.52;100981.72;3102083;28;114766;-61
2021/03/26 04:05:21;;;;;;;;;;;;;;;19.55;44.83;100978.91;3085722;28;115817;-58
2021/03/26 04:06:53;;;;;;;;;;;;;;;19.53;44.86;100976.41;3110034;27;117822;-60
2021/03/26 04:08:31;;;;;;;;;;;;;;;19.54;44.75;100966.84;3095726;27;113909;-59
2021/03/26 04:10:07;;;;;;;;;;;;;;;19.52;44.59;100977.56;3101253;28;113818;-61
2021/03/26 04:11:42;;;;;;;;;;;;;;;19.54;44.63;100971.63;3073650;28;114563;-60
2021/03/26 04:13:17;;;;;;;;;;;;;;;19.51;44.80;100961.88;3092160;28;113967;-59
2021/03/26 04:14:58;;;;;;;;;;;;;;;19.50;44.85;100979.81;3104823;28;114142;-61
2021/03/26 04:16:29;;;;;;;;;;;;;;;19.49;44.51;100958.53;3090455;28;113766;-60
2021/03/26 04:18:05;;;;;;;;;;;;;;;19.50;44.57;100967.75;3115526;27;114155;-60
2021/03/26 04:19:39;;;;;;;;;;;;;;;19.49;44.65;100958.53;3102388;27;113823;-60
2021/03/26 04:21:13;;;;;;;;;;;;;;;19.50;44.58;100970.56;3099069;28;113817;-59
2021/03/26 04:22:48;;;;;;;;;;;;;;;19.52;44.48;100965.50;3111723;28;113810;-60
2021/03/26 04:24:21;;;;;;;;;;;;;;;19.50;44.67;100956.56;3085369;28;113679;-59
2021/03/26 04:26:04;;;;;;;;;;;;;;;19.48;44.49;100940.06;3089903;28;114053;-60
2021/03/26 04:27:39;;;;;;;;;;;;;;;19.47;44.54;100949.59;3093396;28;113759;-58
2021/03/26 04:29:17;;;;;;;;;;;;;;;19.47;44.62;100941.19;3122464;27;114009;-60
2021/03/26 04:30:53;;;;;;;;;;;;;;;19.46;44.62;100945.13;3099410;27;115086;-60
2021/03/26 04:32:24;;;;;;;;;;;;;;;19.45;44.59;100943.44;3087642;28;115126;-60
2021/03/26 04:33:56;;;;;;;;;;;;;;;19.45;44.56;100942.59;3110326;27;115238;-59
2021/03/26 04:35:28;;;;;;;;;;;;;;;19.45;44.77;100937.00;3082808;28;115197;-59
2021/03/26 04:37:04;;;;;;;;;;;;;;;19.43;44.60;100944.88;3101222;28;115112;-59
2021/03/26 04:38:42;;;;;;;;;;;;;;;19.46;44.61;100949.88;3107630;27;115680;-60
2021/03/26 04:40:18;;;;;;;;;;;;;;;19.44;44.68;100936.16;3093786;28;115735;-59
2021/03/26 04:41:56;;;;;;;;;;;;;;;19.42;44.70;100935.63;3099365;28;115354;-60
2021/03/26 04:43:31;;;;;;;;;;;;;;;19.42;44.68;100938.41;3090052;28;115938;-59
2021/03/26 04:45:06;;;;;;;;;;;;;;;19.42;44.33;100932.81;3116095;27;115260;-60
2021/03/26 04:46:44;;;;;;;;;;;;;;;19.43;44.41;100942.06;3099408;27;114493;-59
2021/03/26 04:48:21;;;;;;;;;;;;;;;19.42;44.61;100937.59;3121398;27;115103;-60
2021/03/26 04:49:56;;;;;;;;;;;;;;;19.39;44.65;100943.81;3104875;27;115388;-58
2021/03/26 04:51:36;;;;;;;;;;;;;;;19.38;44.56;100930.91;3095225;28;116351;-60
2021/03/26 04:53:13;;;;;;;;;;;;;;;19.37;44.65;100923.63;3095095;28;114795;-59
2021/03/26 04:54:51;;;;;;;;;;;;;;;19.38;44.67;100930.91;3099143;28;115849;-60
2021/03/26 04:56:24;;;;;;;;;;;;;;;19.38;44.69;100922.50;3111729;27;115827;-58
2021/03/26 04:57:57;;;;;;;;;;;;;;;19.38;44.55;100917.75;3080119;28;115806;-60
2021/03/26 04:59:38;;;;;;;;;;;;;;;19.36;44.74;100922.81;3087027;28;115712;-59
2021/03/26 05:01:13;;;;;;;;;;;;;;;19.36;44.60;100925.59;3087510;28;116535;-59
2021/03/26 05:02:48;;;;;;;;;;;;;;;19.34;44.68;100915.84;3087580;28;115833;-60
2021/03/26 05:04:23;;;;;;;;;;;;;;;19.35;44.65;100909.13;3113555;27;114612;-59
2021/03/26 05:06:01;;;;;;;;;;;;;;;19.36;44.46;100908.78;3089332;28;114609;-59
2021/03/26 05:07:34;;;;;;;;;;;;;;;19.34;44.51;100904.66;3106924;27;116033;-59
2021/03/26 05:09:09;;;;;;;;;;;;;;;19.33;44.53;100915.00;3093047;28;114824;-60
2021/03/26 05:10:41;;;;;;;;;;;;;;;19.35;44.36;100906.31;3089631;28;115717;-59
2021/03/26 05:12:15;;;;;;;;;;;;;;;19.36;44.65;100913.56;3091062;28;115994;-60
2021/03/26 05:13:49;;;;;;;;;;;;;;;19.32;44.67;100916.13;3085088;28;115791;-60
2021/03/26 05:15:20;;;;;;;;;;;;;;;19.32;44.62;100920.91;3096390;28;116064;-59
2021/03/26 05:16:55;;;;;;;;;;;;;;;19.32;44.78;100915.31;3084811;28;114024;-60
2021/03/26 05:18:31;;;;;;;;;;;;;;;19.32;44.72;100913.34;3109462;27;113870;-60
2021/03/26 05:20:13;;;;;;;;;;;;;;;19.32;44.75;100916.13;3088338;28;113814;-59
2021/03/26 05:21:47;;;;;;;;;;;;;;;19.33;44.79;100911.38;3088781;28;113955;-58
2021/03/26 05:23:21;;;;;;;;;;;;;;;19.31;44.94;100913.63;3086857;28;113992;-60
2021/03/26 05:24:55;;;;;;;;;;;;;;;19.28;44.87;100919.84;3089998;28;113789;-58
2021/03/26 05:26:27;;;;;;;;;;;;;;;19.29;44.53;100907.50;3115816;27;113946;-60
2021/03/26 05:27:59;;;;;;;;;;;;;;;19.28;44.86;100909.47;3095150;27;113968;-60
2021/03/26 05:29:31;;;;;;;;;;;;;;;19.29;44.89;100915.91;3084628;28;113827;-58
2021/03/26 05:31:07;;;;;;;;;;;;;;;19.29;44.74;100905.53;3095903;28;113836;-60
2021/03/26 05:32:43;;;;;;;;;;;;;;;19.28;44.72;100895.47;3086550;28;113930;-59
2021/03/26 05:34:25;;;;;;;;;;;;;;;19.27;44.96;100901.38;3080038;28;114021;-60
2021/03/26 05:36:06;;;;;;;;;;;;;;;19.27;44.80;100910.59;3093943;28;113998;-60
2021/03/26 05:37:40;;;;;;;;;;;;;;;19.25;45.05;100901.69;3099624;28;114421;-61
2021/03/26 05:39:14;;;;;;;;;;;;;;;19.25;45.14;100901.69;3094386;28;115052;-60
2021/03/26 05:40:47;;;;;;;;;;;;;;;19.22;45.36;100907.88;3115635;27;115263;-61
2021/03/26 05:42:29;;;;;;;;;;;;;;;19.21;45.09;100897.00;3094035;27;115241;-61
2021/03/26 05:44:10;;;;;;;;;;;;;;;19.21;44.95;100894.19;3113881;27;115943;-60
2021/03/26 05:45:53;;;;;;;;;;;;;;;19.20;45.18;100889.72;3091492;28;115297;-61
2021/03/26 05:47:34;;;;;;;;;;;;;;;19.23;45.00;100886.28;3090805;28;115151;-61
2021/03/26 05:49:15;;;;;;;;;;;;;;;19.23;45.02;100869.50;3090015;28;115389;-61
2021/03/26 05:50:48;;;;;;;;;;;;;;;19.26;45.29;100882.91;3114406;27;115191;-59
2021/03/26 05:52:29;;;;;;;;;;;;;;;19.28;45.23;100889.88;3098494;27;114089;-61
2021/03/26 05:54:20;;;;;;;;;;;;;;;19.33;45.23;100889.81;3086697;28;115166;-60
2021/03/26 05:55:51;;;;;;;;;;;;;;;19.37;45.45;100890.03;3102957;27;115558;-59
2021/03/26 05:57:29;;;;;;;;;;;;;;;19.39;45.58;100884.97;3088756;28;114243;-61
2021/03/26 05:59:08;;;;;;;;;;;;;;;19.39;45.56;100887.78;3104570;27;116416;-61
2021/03/26 06:00:52;;;;;;;;;;;;;;;19.40;45.88;100889.41;3091624;28;115999;-60
2021/03/26 06:02:46;;;;;;;;;;;;;;;19.43;45.75;100897.22;3080555;28;115753;-59
2021/03/26 06:04:27;;;;;;;;;;;;;;;19.44;45.59;100884.94;3082804;28;115755;-61
2021/03/26 06:06:01;;;;;;;;;;;;;;;19.48;45.60;100883.19;3080898;28;114706;-60
2021/03/26 06:07:33;;;;;;;;;;;;;;;19.50;45.40;100880.88;3090029;28;115830;-59
2021/03/26 06:09:14;;;;;;;;;;;;;;;19.52;45.65;100882.28;3085966;28;115728;-60
2021/03/26 06:10:45;;;;;;;;;;;;;;;19.57;45.73;100874.91;3086378;28;115933;-60
2021/03/26 06:12:24;;;;;;;;;;;;;;;19.59;45.68;100876.28;3086972;28;116086;-60
2021/03/26 06:14:05;;;;;;;;;;;;;;;19.65;45.76;100875.06;3097254;28;116354;-60
2021/03/26 06:15:39;;;;;;;;;;;;;;;19.70;45.63;100866.56;3076619;28;115782;-60
2021/03/26 06:17:20;;;;;;;;;;;;;;;19.73;45.69;100871.56;3086569;28;115899;-60
2021/03/26 06:19:01;;;;;;;;;;;;;;;19.78;45.37;100874.28;3086677;28;115632;-59
2021/03/26 06:20:42;;;;;;;;;;;;;;;19.82;45.36;100866.94;3085277;28;114739;-61
2021/03/26 06:22:23;;;;;;;;;;;;;;;19.89;45.18;100861.78;3109845;28;115939;-61
2021/03/26 06:23:57;;;;;;;;;;;;;;;19.94;46.08;100858.88;3082580;28;115849;-60
2021/03/26 06:25:36;;;;;;;;;;;;;;;19.99;45.75;100864.38;3086478;28;113795;-59
2021/03/26 06:27:15;;;;;;;;;;;;;;;20.03;45.49;100859.03;3097764;28;113885;-60
2021/03/26 06:28:47;;;;;;;;;;;;;;;20.10;45.54;100859.44;3088114;28;113935;-59
2021/03/26 06:30:24;;;;;;;;;;;;;;;20.14;45.11;100848.44;3110249;27;115085;-58
2021/03/26 06:32:03;;;;;;;;;;;;;;;20.19;45.28;100853.94;3092655;28;114197;-60
2021/03/26 06:33:35;;;;;;;;;;;;;;;20.25;45.95;100852.72;3084641;28;113807;-60
2021/03/26 06:35:16;;;;;;;;;;;;;;;20.30;45.31;100855.47;3081181;28;113628;-60
2021/03/26 06:36:57;;;;;;;;;;;;;;;20.35;45.34;100856.19;3080847;28;113691;-59
2021/03/26 06:38:38;;;;;;;;;;;;;;;20.40;45.37;100852.44;3086346;28;113928;-59
2021/03/26 06:40:17;;;;;;;;;;;;;;;20.46;45.06;100850.38;3080214;28;113945;-58
2021/03/26 06:41:50;;;;;;;;;;;;;;;20.50;45.50;100843.84;3103826;27;113977;-59
2021/03/26 06:43:31;;;;;;;;;;;;;;;20.55;45.02;100848.53;3098200;28;113754;-60
2021/03/26 06:45:02;;;;;;;;;;;;;;;20.59;44.73;100838.34;3089028;28;113880;-61
2021/03/26 06:46:41;;;;;;;;;;;;;;;20.63;45.10;100844.97;3110226;27;113749;-60
2021/03/26 06:48:14;;;;;;;;;;;;;;;20.68;44.95;100830.84;3086372;28;113711;-59
2021/03/26 06:49:55;;;;;;;;;;;;;;;20.72;44.88;100832.72;3095967;28;115533;-60
2021/03/26 06:51:32;;;;;;;;;;;;;;;20.75;44.34;100837.72;3098215;28;115229;-60
2021/03/26 06:53:12;;;;;;;;;;;;;;;20.80;44.56;100845.22;3085772;28;115621;-60
2021/03/26 06:54:54;;;;;;;;;;;;;;;20.83;43.90;100834.19;3085196;28;115295;-60
2021/03/26 06:56:35;;;;;;;;;;;;;;;20.88;43.88;100830.44;3087513;28;116370;-61
2021/03/26 06:58:16;;;;;;;;;;;;;;;20.92;43.95;100836.25;3086534;28;114539;-59
2021/03/26 06:59:57;;;;;;;;;;;;;;;20.96;43.56;100829.69;3107343;27;115415;-58
2021/03/26 07:01:38;;;;;;;;;;;;;;;21.01;43.73;100834.34;3094357;28;117098;-60
2021/03/26 07:03:24;;;;;;;;;;;;;;;21.06;43.87;100828.63;3087350;28;115119;-59
2021/03/26 07:05:15;;;;;;;;;;;;;;;21.09;43.64;100833.63;3087972;28;115185;-58
2021/03/26 07:07:00;;;;;;;;;;;;;;;21.13;43.76;100832.69;3097281;28;115663;-60
2021/03/26 07:08:31;;;;;;;;;;;;;;;21.17;43.81;100830.09;3086224;28;116788;-59
2021/03/26 07:10:12;;;;;;;;;;;;;;;21.20;43.68;100818.22;3078242;28;115734;-60
2021/03/26 07:11:53;;;;;;;;;;;;;;;21.23;43.60;100821.22;3089819;28;115111;-60
2021/03/26 07:13:44;;;;;;;;;;;;;;;21.28;43.45;100814.66;3097360;28;115897;-58
2021/03/26 07:15:21;;;;;;;;;;;;;;;21.32;43.50;100818.50;3110048;28;115787;-58
2021/03/26 07:17:02;;;;;;;;;;;;;;;21.35;43.39;100817.84;3094570;28;115786;-60
2021/03/26 07:18:43;;;;;;;;;;;;;;;21.40;43.21;100830.97;3094645;28;115924;-59
2021/03/26 07:20:21;;;;;;;;;;;;;;;21.43;43.43;100833.16;3090191;28;115972;-60
2021/03/26 07:22:02;;;;;;;;;;;;;;;21.45;43.32;100825.22;3086621;28;116182;-58
2021/03/26 07:23:49;;;;;;;;;;;;;;;21.48;43.66;100816.16;3086318;28;116292;-60
2021/03/26 07:25:21;;;;;;;;;;;;;;;21.49;43.00;100832.69;3108642;27;116625;-60
2021/03/26 07:26:56;;;;;;;;;;;;;;;21.51;42.91;100824.78;3093968;28;117468;-58
2021/03/26 07:28:31;;;;;;;;;;;;;;;21.52;42.64;100825.63;3079824;28;115754;-63
2021/03/26 07:30:12;;;;;;;;;;;;;;;21.52;42.48;100820.84;3081351;28;115757;-57
2021/03/26 07:31:47;;;;;;;;;;;;;;;21.53;42.48;100816.84;3086840;28;114878;-60
2021/03/26 07:33:24;;;;;;;;;;;;;;;21.54;42.52;100826.97;3086927;28;115766;-60
2021/03/26 07:34:56;;;;;;;;;;;;;;;21.56;42.74;100821.84;3082810;28;115701;-60
2021/03/26 07:36:39;;;;;;;;;;;;;;;21.55;42.32;100814.56;3088395;28;113871;-58
2021/03/26 07:38:20;;;;;;;;;;;;;;;21.57;42.46;100817.06;3098862;28;113787;-58
2021/03/26 07:39:56;;;;;;;;;;;;;;;21.57;42.62;100825.50;3107543;27;113832;-58
2021/03/26 07:41:37;;;;;;;;;;;;;;;21.57;42.09;100819.88;3084049;28;113886;-64
2021/03/26 07:43:18;;;;;;;;;;;;;;;21.57;42.48;100808.63;3098760;27;113737;-60
2021/03/26 07:45:01;;;;;;;;;;;;;;;21.56;42.13;100809.78;3093258;28;113804;-60
2021/03/26 07:46:33;;;;;;;;;;;;;;;21.58;42.28;100815.91;3116490;27;113785;-57
2021/03/26 07:48:07;;;;;;;;;;;;;;;21.58;42.80;100822.34;3095783;28;113978;-60
2021/03/26 07:49:48;;;;;;;;;;;;;;;21.59;43.00;100807.16;3088614;28;113738;-60
2021/03/26 07:51:23;;;;;;;;;;;;;;;21.59;43.08;100800.69;3088059;28;113703;-57
2021/03/26 07:53:06;;;;;;;;;;;;;;;21.61;43.49;100818.09;3085686;28;113976;-59
2021/03/26 07:54:47;;;;;;;;;;;;;;;21.56;42.37;100832.28;3087130;28;114108;-60
2021/03/26 07:56:25;;;;;;;;;;;;;;;21.47;41.69;100809.72;3088338;28;113966;-59
2021/03/26 07:57:57;;;;;;;;;;;;;;;21.44;41.67;100809.53;3103032;28;114304;-58
2021/03/26 07:59:38;;;;;;;;;;;;;;;21.30;40.14;100810.38;3101473;28;115169;-58
2021/03/26 08:01:09;;;;;;;;;;;;;;;21.22;40.89;100822.38;3086945;28;115239;-57
2021/03/26 08:02:50;;;;;;;;;;;;;;;21.26;40.59;100809.34;3104889;27;115287;-59
2021/03/26 08:04:31;;;;;;;;;;;;;;;21.28;40.46;100804.25;3095490;28;115379;-59
2021/03/26 08:06:13;;;;;;;;;;;;;;;21.28;40.74;100801.44;3082098;28;115832;-58